sensor_id;sensor_type;location;lat;lon;timestamp;temperature;humidity
23991;DHT22;12205;50.600;4.608;2023-05-17T00:02:07;10.40;99.90
23991;DHT22;12205;50.600;4.608;2023-05-17T00:04:35;10.40;99.90
23991;DHT22;12205;50.600;4.608;2023-05-17T00:07:02;10.40;99.90
23991;DHT22;12205;50.600;4.608;2023-05-17T00:09:29;10.30;99.90
23991;DHT22;12205;50.600;4.608;2023-05-17T00:11:56;10.30;99.90
23991;DHT22;12205;50.600;4.608;2023-05-17T00:14:23;10.30;99.90
23991;DHT22;12205;50.600;4.608;2023-05-17T00:16:50;10.30;99.90
23991;DHT22;12205;50.600;4.608;2023-05-17T00:19:18;10.20;99.90
23991;DHT22;12205;50.600;4.608;2023-05-17T00:21:45;10.20;99.90
23991;DHT22;12205;50.600;4.608;2023-05-17T00:24:12;10.10;99.90
23991;DHT22;12205;50.600;4.608;2023-05-17T00:26:39;10.10;99.90
23991;DHT22;12205;50.600;4.608;2023-05-17T00:29:06;10.10;99.90
23991;DHT22;12205;50.600;4.608;2023-05-17T00:31:34;10.00;99.90
23991;DHT22;12205;50.600;4.608;2023-05-17T00:34:01;10.00;99.90
23991;DHT22;12205;50.600;4.608;2023-05-17T00:36:29;10.00;99.90
23991;DHT22;12205;50.600;4.608;2023-05-17T00:38:56;10.00;99.90
23991;DHT22;12205;50.600;4.608;2023-05-17T00:41:23;9.90;99.90
23991;DHT22;12205;50.600;4.608;2023-05-17T00:43:51;9.90;99.90
23991;DHT22;12205;50.600;4.608;2023-05-17T00:46:18;9.90;99.90
23991;DHT22;12205;50.600;4.608;2023-05-17T00:48:45;9.80;99.90
23991;DHT22;12205;50.600;4.608;2023-05-17T00:51:13;9.80;99.90
23991;DHT22;12205;50.600;4.608;2023-05-17T00:53:44;9.80;99.90
23991;DHT22;12205;50.600;4.608;2023-05-17T00:56:11;9.70;99.90
23991;DHT22;12205;50.600;4.608;2023-05-17T00:58:38;9.70;99.90
23991;DHT22;12205;50.600;4.608;2023-05-17T01:01:05;9.70;99.90
23991;DHT22;12205;50.600;4.608;2023-05-17T01:03:32;9.70;99.90
23991;DHT22;12205;50.600;4.608;2023-05-17T01:05:59;9.60;99.90
23991;DHT22;12205;50.600;4.608;2023-05-17T01:08:26;9.60;99.90
23991;DHT22;12205;50.600;4.608;2023-05-17T01:11:00;9.60;99.90
23991;DHT22;12205;50.600;4.608;2023-05-17T01:13:35;9.50;99.90
23991;DHT22;12205;50.600;4.608;2023-05-17T01:16:16;9.50;99.90
23991;DHT22;12205;50.600;4.608;2023-05-17T01:18:47;9.40;99.90
23991;DHT22;12205;50.600;4.608;2023-05-17T01:21:33;9.40;99.90
23991;DHT22;12205;50.600;4.608;2023-05-17T01:24:15;9.40;99.90
23991;DHT22;12205;50.600;4.608;2023-05-17T01:26:47;9.40;99.90
23991;DHT22;12205;50.600;4.608;2023-05-17T01:29:16;9.30;99.90
23991;DHT22;12205;50.600;4.608;2023-05-17T01:31:45;9.30;99.90
23991;DHT22;12205;50.600;4.608;2023-05-17T01:34:13;9.30;99.90
23991;DHT22;12205;50.600;4.608;2023-05-17T01:36:49;9.30;99.90
23991;DHT22;12205;50.600;4.608;2023-05-17T01:39:16;9.30;99.90
23991;DHT22;12205;50.600;4.608;2023-05-17T01:41:49;9.20;99.90
23991;DHT22;12205;50.600;4.608;2023-05-17T01:44:24;9.20;99.90
23991;DHT22;12205;50.600;4.608;2023-05-17T01:46:57;9.20;99.90
23991;DHT22;12205;50.600;4.608;2023-05-17T01:49:31;9.20;99.90
23991;DHT22;12205;50.600;4.608;2023-05-17T01:52:04;9.10;99.90
23991;DHT22;12205;50.600;4.608;2023-05-17T01:54:36;9.10;99.90
23991;DHT22;12205;50.600;4.608;2023-05-17T01:57:07;9.10;99.90
23991;DHT22;12205;50.600;4.608;2023-05-17T01:59:37;9.10;99.90
23991;DHT22;12205;50.600;4.608;2023-05-17T02:02:05;9.10;99.90
23991;DHT22;12205;50.600;4.608;2023-05-17T02:04:35;9.10;99.90
23991;DHT22;12205;50.600;4.608;2023-05-17T02:07:02;9.00;99.90
23991;DHT22;12205;50.600;4.608;2023-05-17T02:09:30;9.00;99.90
23991;DHT22;12205;50.600;4.608;2023-05-17T02:11:56;9.00;99.90
23991;DHT22;12205;50.600;4.608;2023-05-17T02:14:25;9.00;99.90
23991;DHT22;12205;50.600;4.608;2023-05-17T02:16:52;9.00;99.90
23991;DHT22;12205;50.600;4.608;2023-05-17T02:19:18;8.90;99.90
23991;DHT22;12205;50.600;4.608;2023-05-17T02:21:45;8.90;99.90
23991;DHT22;12205;50.600;4.608;2023-05-17T02:24:12;8.80;99.90
23991;DHT22;12205;50.600;4.608;2023-05-17T02:26:39;8.80;99.90
23991;DHT22;12205;50.600;4.608;2023-05-17T02:29:07;8.70;99.90
23991;DHT22;12205;50.600;4.608;2023-05-17T02:31:36;8.70;99.90
23991;DHT22;12205;50.600;4.608;2023-05-17T02:34:03;8.70;99.90
23991;DHT22;12205;50.600;4.608;2023-05-17T02:36:30;8.60;99.90
23991;DHT22;12205;50.600;4.608;2023-05-17T02:38:58;8.60;99.90
23991;DHT22;12205;50.600;4.608;2023-05-17T02:41:24;8.60;99.90
23991;DHT22;12205;50.600;4.608;2023-05-17T02:43:51;8.50;99.90
23991;DHT22;12205;50.600;4.608;2023-05-17T02:46:18;8.50;99.90
23991;DHT22;12205;50.600;4.608;2023-05-17T02:48:47;8.40;99.90
23991;DHT22;12205;50.600;4.608;2023-05-17T02:51:14;8.40;99.90
23991;DHT22;12205;50.600;4.608;2023-05-17T02:53:41;8.40;99.90
23991;DHT22;12205;50.600;4.608;2023-05-17T02:56:08;8.30;99.90
23991;DHT22;12205;50.600;4.608;2023-05-17T02:58:35;8.30;99.90
23991;DHT22;12205;50.600;4.608;2023-05-17T03:01:02;8.30;99.90
23991;DHT22;12205;50.600;4.608;2023-05-17T03:03:29;8.20;99.90
23991;DHT22;12205;50.600;4.608;2023-05-17T03:06:00;8.20;99.90
23991;DHT22;12205;50.600;4.608;2023-05-17T03:08:30;8.10;99.90
23991;DHT22;12205;50.600;4.608;2023-05-17T03:10:58;8.10;99.90
23991;DHT22;12205;50.600;4.608;2023-05-17T03:13:25;8.10;99.90
23991;DHT22;12205;50.600;4.608;2023-05-17T03:15:52;8.10;99.90
23991;DHT22;12205;50.600;4.608;2023-05-17T03:18:19;8.00;99.90
23991;DHT22;12205;50.600;4.608;2023-05-17T03:20:47;8.00;99.90
23991;DHT22;12205;50.600;4.608;2023-05-17T03:23:15;8.00;99.90
23991;DHT22;12205;50.600;4.608;2023-05-17T03:25:52;7.90;99.90
23991;DHT22;12205;50.600;4.608;2023-05-17T03:28:19;7.90;99.90
23991;DHT22;12205;50.600;4.608;2023-05-17T03:30:47;7.80;99.90
23991;DHT22;12205;50.600;4.608;2023-05-17T03:33:14;7.80;99.90
23991;DHT22;12205;50.600;4.608;2023-05-17T03:35:41;7.70;99.90
23991;DHT22;12205;50.600;4.608;2023-05-17T03:38:08;7.80;99.90
23991;DHT22;12205;50.600;4.608;2023-05-17T03:40:36;7.70;99.90
23991;DHT22;12205;50.600;4.608;2023-05-17T03:43:03;7.80;99.90
23991;DHT22;12205;50.600;4.608;2023-05-17T03:45:31;7.70;99.90
23991;DHT22;12205;50.600;4.608;2023-05-17T03:47:58;7.70;99.90
23991;DHT22;12205;50.600;4.608;2023-05-17T03:50:26;7.70;99.90
23991;DHT22;12205;50.600;4.608;2023-05-17T03:52:53;7.60;99.90
23991;DHT22;12205;50.600;4.608;2023-05-17T03:55:20;7.60;99.90
23991;DHT22;12205;50.600;4.608;2023-05-17T03:57:49;7.60;99.90
23991;DHT22;12205;50.600;4.608;2023-05-17T04:00:16;7.50;99.90
23991;DHT22;12205;50.600;4.608;2023-05-17T04:02:46;7.50;99.90
23991;DHT22;12205;50.600;4.608;2023-05-17T04:05:14;7.50;99.90
23991;DHT22;12205;50.600;4.608;2023-05-17T04:07:44;7.50;99.90
23991;DHT22;12205;50.600;4.608;2023-05-17T04:10:12;7.50;99.90
23991;DHT22;12205;50.600;4.608;2023-05-17T04:12:39;7.50;99.90
23991;DHT22;12205;50.600;4.608;2023-05-17T04:15:08;7.50;99.90
23991;DHT22;12205;50.600;4.608;2023-05-17T04:17:37;7.40;99.90
23991;DHT22;12205;50.600;4.608;2023-05-17T04:20:05;7.40;99.90
23991;DHT22;12205;50.600;4.608;2023-05-17T04:22:33;7.40;99.90
23991;DHT22;12205;50.600;4.608;2023-05-17T04:25:00;7.40;99.90
23991;DHT22;12205;50.600;4.608;2023-05-17T04:27:28;7.40;99.90
23991;DHT22;12205;50.600;4.608;2023-05-17T04:29:55;7.40;99.90
23991;DHT22;12205;50.600;4.608;2023-05-17T04:32:23;7.50;99.90
23991;DHT22;12205;50.600;4.608;2023-05-17T04:34:53;7.50;99.90
23991;DHT22;12205;50.600;4.608;2023-05-17T04:37:21;7.50;99.90
23991;DHT22;12205;50.600;4.608;2023-05-17T04:39:51;7.50;99.90
23991;DHT22;12205;50.600;4.608;2023-05-17T04:42:18;7.50;99.90
23991;DHT22;12205;50.600;4.608;2023-05-17T04:44:51;7.50;99.90
23991;DHT22;12205;50.600;4.608;2023-05-17T04:47:18;7.50;99.90
23991;DHT22;12205;50.600;4.608;2023-05-17T04:49:46;7.60;99.90
23991;DHT22;12205;50.600;4.608;2023-05-17T04:52:16;7.60;99.90
23991;DHT22;12205;50.600;4.608;2023-05-17T04:54:44;7.60;99.90
23991;DHT22;12205;50.600;4.608;2023-05-17T04:57:11;7.70;99.90
23991;DHT22;12205;50.600;4.608;2023-05-17T04:59:57;7.70;99.90
23991;DHT22;12205;50.600;4.608;2023-05-17T05:02:26;7.70;99.90
23991;DHT22;12205;50.600;4.608;2023-05-17T05:04:54;7.80;99.90
23991;DHT22;12205;50.600;4.608;2023-05-17T05:07:21;7.90;99.90
23991;DHT22;12205;50.600;4.608;2023-05-17T05:09:48;7.90;99.90
23991;DHT22;12205;50.600;4.608;2023-05-17T05:12:16;8.00;99.90
23991;DHT22;12205;50.600;4.608;2023-05-17T05:14:43;8.10;99.90
23991;DHT22;12205;50.600;4.608;2023-05-17T05:17:10;8.10;99.90
23991;DHT22;12205;50.600;4.608;2023-05-17T05:19:39;8.20;99.90
23991;DHT22;12205;50.600;4.608;2023-05-17T05:22:08;8.30;99.90
23991;DHT22;12205;50.600;4.608;2023-05-17T05:24:36;8.40;99.90
23991;DHT22;12205;50.600;4.608;2023-05-17T05:27:03;8.50;99.90
23991;DHT22;12205;50.600;4.608;2023-05-17T05:29:30;8.60;99.90
23991;DHT22;12205;50.600;4.608;2023-05-17T05:31:58;8.70;99.90
23991;DHT22;12205;50.600;4.608;2023-05-17T05:34:25;8.80;99.90
23991;DHT22;12205;50.600;4.608;2023-05-17T05:36:53;9.00;99.90
23991;DHT22;12205;50.600;4.608;2023-05-17T05:39:22;9.10;99.90
23991;DHT22;12205;50.600;4.608;2023-05-17T05:41:49;9.20;99.90
23991;DHT22;12205;50.600;4.608;2023-05-17T05:44:17;9.30;99.90
23991;DHT22;12205;50.600;4.608;2023-05-17T05:46:45;9.40;99.90
23991;DHT22;12205;50.600;4.608;2023-05-17T05:49:12;9.50;99.90
23991;DHT22;12205;50.600;4.608;2023-05-17T05:51:39;9.60;99.90
23991;DHT22;12205;50.600;4.608;2023-05-17T05:54:06;9.70;99.90
23991;DHT22;12205;50.600;4.608;2023-05-17T05:56:34;9.90;99.90
23991;DHT22;12205;50.600;4.608;2023-05-17T05:59:01;10.00;99.90
23991;DHT22;12205;50.600;4.608;2023-05-17T06:01:28;10.10;99.90
23991;DHT22;12205;50.600;4.608;2023-05-17T06:03:55;10.20;99.90
23991;DHT22;12205;50.600;4.608;2023-05-17T06:06:22;10.30;99.90
23991;DHT22;12205;50.600;4.608;2023-05-17T06:08:49;10.50;99.90
23991;DHT22;12205;50.600;4.608;2023-05-17T06:11:17;10.60;99.90
23991;DHT22;12205;50.600;4.608;2023-05-17T06:13:46;10.70;99.90
23991;DHT22;12205;50.600;4.608;2023-05-17T06:16:13;10.80;99.90
23991;DHT22;12205;50.600;4.608;2023-05-17T06:18:40;10.90;99.90
23991;DHT22;12205;50.600;4.608;2023-05-17T06:21:07;10.90;99.90
23991;DHT22;12205;50.600;4.608;2023-05-17T06:23:33;11.00;99.90
23991;DHT22;12205;50.600;4.608;2023-05-17T06:26:00;11.10;99.90
23991;DHT22;12205;50.600;4.608;2023-05-17T06:28:27;11.10;99.90
23991;DHT22;12205;50.600;4.608;2023-05-17T06:30:55;11.20;99.90
23991;DHT22;12205;50.600;4.608;2023-05-17T06:33:22;11.20;99.90
23991;DHT22;12205;50.600;4.608;2023-05-17T06:35:49;11.30;99.90
23991;DHT22;12205;50.600;4.608;2023-05-17T06:38:16;11.50;99.90
23991;DHT22;12205;50.600;4.608;2023-05-17T06:40:43;11.60;99.90
23991;DHT22;12205;50.600;4.608;2023-05-17T06:43:10;11.70;99.90
23991;DHT22;12205;50.600;4.608;2023-05-17T06:45:37;11.80;99.90
23991;DHT22;12205;50.600;4.608;2023-05-17T06:48:05;11.90;99.90
23991;DHT22;12205;50.600;4.608;2023-05-17T06:50:32;12.00;99.90
23991;DHT22;12205;50.600;4.608;2023-05-17T06:52:59;12.10;99.90
23991;DHT22;12205;50.600;4.608;2023-05-17T06:55:26;12.10;99.90
23991;DHT22;12205;50.600;4.608;2023-05-17T06:57:53;12.20;99.90
23991;DHT22;12205;50.600;4.608;2023-05-17T07:00:20;12.20;99.90
23991;DHT22;12205;50.600;4.608;2023-05-17T07:02:47;12.30;99.90
23991;DHT22;12205;50.600;4.608;2023-05-17T07:05:16;12.40;99.90
23991;DHT22;12205;50.600;4.608;2023-05-17T07:07:42;12.40;99.90
23991;DHT22;12205;50.600;4.608;2023-05-17T07:10:10;12.50;99.90
23991;DHT22;12205;50.600;4.608;2023-05-17T07:12:36;12.60;99.90
23991;DHT22;12205;50.600;4.608;2023-05-17T07:15:04;12.70;99.90
23991;DHT22;12205;50.600;4.608;2023-05-17T07:17:31;12.80;99.90
23991;DHT22;12205;50.600;4.608;2023-05-17T07:19:58;12.80;99.90
23991;DHT22;12205;50.600;4.608;2023-05-17T07:22:26;12.90;99.90
23991;DHT22;12205;50.600;4.608;2023-05-17T07:24:53;12.90;99.90
23991;DHT22;12205;50.600;4.608;2023-05-17T07:27:20;12.90;99.90
23991;DHT22;12205;50.600;4.608;2023-05-17T07:29:47;12.90;99.90
23991;DHT22;12205;50.600;4.608;2023-05-17T07:32:14;12.90;99.90
23991;DHT22;12205;50.600;4.608;2023-05-17T07:34:42;13.00;99.90
23991;DHT22;12205;50.600;4.608;2023-05-17T07:37:10;13.00;99.90
23991;DHT22;12205;50.600;4.608;2023-05-17T07:39:38;13.00;99.90
23991;DHT22;12205;50.600;4.608;2023-05-17T07:42:06;13.00;99.90
23991;DHT22;12205;50.600;4.608;2023-05-17T07:44:33;13.10;99.90
23991;DHT22;12205;50.600;4.608;2023-05-17T07:47:00;13.10;99.90
23991;DHT22;12205;50.600;4.608;2023-05-17T07:49:27;13.20;99.90
23991;DHT22;12205;50.600;4.608;2023-05-17T07:51:53;13.20;99.90
23991;DHT22;12205;50.600;4.608;2023-05-17T07:54:24;13.30;99.90
23991;DHT22;12205;50.600;4.608;2023-05-17T07:56:53;13.40;99.90
23991;DHT22;12205;50.600;4.608;2023-05-17T07:59:21;13.40;99.90
23991;DHT22;12205;50.600;4.608;2023-05-17T08:01:48;13.60;99.90
23991;DHT22;12205;50.600;4.608;2023-05-17T08:04:15;13.60;99.90
23991;DHT22;12205;50.600;4.608;2023-05-17T08:06:42;13.70;99.90
23991;DHT22;12205;50.600;4.608;2023-05-17T08:09:10;13.80;99.90
23991;DHT22;12205;50.600;4.608;2023-05-17T08:11:37;13.80;99.90
23991;DHT22;12205;50.600;4.608;2023-05-17T08:14:12;13.90;99.90
23991;DHT22;12205;50.600;4.608;2023-05-17T08:16:40;14.00;99.90
23991;DHT22;12205;50.600;4.608;2023-05-17T08:19:09;14.10;99.90
23991;DHT22;12205;50.600;4.608;2023-05-17T08:21:37;14.10;99.90
23991;DHT22;12205;50.600;4.608;2023-05-17T08:24:05;14.10;99.90
23991;DHT22;12205;50.600;4.608;2023-05-17T08:26:32;14.10;99.90
23991;DHT22;12205;50.600;4.608;2023-05-17T08:28:59;14.10;99.90
23991;DHT22;12205;50.600;4.608;2023-05-17T08:31:28;14.00;99.90
23991;DHT22;12205;50.600;4.608;2023-05-17T08:33:55;14.00;99.90
23991;DHT22;12205;50.600;4.608;2023-05-17T08:36:23;14.00;99.90
23991;DHT22;12205;50.600;4.608;2023-05-17T08:38:50;14.00;99.90
23991;DHT22;12205;50.600;4.608;2023-05-17T08:41:17;14.00;99.90
23991;DHT22;12205;50.600;4.608;2023-05-17T08:43:46;14.00;99.90
23991;DHT22;12205;50.600;4.608;2023-05-17T08:46:13;14.00;99.90
23991;DHT22;12205;50.600;4.608;2023-05-17T08:48:43;14.10;99.90
23991;DHT22;12205;50.600;4.608;2023-05-17T08:51:13;14.20;99.90
23991;DHT22;12205;50.600;4.608;2023-05-17T08:53:41;14.30;99.90
23991;DHT22;12205;50.600;4.608;2023-05-17T08:56:13;14.40;99.90
23991;DHT22;12205;50.600;4.608;2023-05-17T08:58:42;14.40;99.90
23991;DHT22;12205;50.600;4.608;2023-05-17T09:01:10;14.40;99.90
23991;DHT22;12205;50.600;4.608;2023-05-17T09:03:38;14.50;99.90
23991;DHT22;12205;50.600;4.608;2023-05-17T09:06:08;14.40;99.90
23991;DHT22;12205;50.600;4.608;2023-05-17T09:08:36;14.30;99.90
23991;DHT22;12205;50.600;4.608;2023-05-17T09:11:03;14.40;99.90
23991;DHT22;12205;50.600;4.608;2023-05-17T09:13:30;14.30;99.90
23991;DHT22;12205;50.600;4.608;2023-05-17T09:15:57;14.40;99.90
23991;DHT22;12205;50.600;4.608;2023-05-17T09:18:31;14.40;99.90
23991;DHT22;12205;50.600;4.608;2023-05-17T09:21:01;14.40;99.90
23991;DHT22;12205;50.600;4.608;2023-05-17T09:23:31;14.50;99.90
23991;DHT22;12205;50.600;4.608;2023-05-17T09:26:05;14.50;99.90
23991;DHT22;12205;50.600;4.608;2023-05-17T09:28:37;14.50;99.90
23991;DHT22;12205;50.600;4.608;2023-05-17T09:31:05;14.50;99.90
23991;DHT22;12205;50.600;4.608;2023-05-17T09:33:33;14.60;99.90
23991;DHT22;12205;50.600;4.608;2023-05-17T09:36:00;14.70;99.90
23991;DHT22;12205;50.600;4.608;2023-05-17T09:38:28;14.80;99.90
23991;DHT22;12205;50.600;4.608;2023-05-17T09:40:56;15.00;99.90
23991;DHT22;12205;50.600;4.608;2023-05-17T09:43:24;15.10;99.90
23991;DHT22;12205;50.600;4.608;2023-05-17T09:45:55;15.30;99.90
23991;DHT22;12205;50.600;4.608;2023-05-17T09:48:24;15.40;99.90
23991;DHT22;12205;50.600;4.608;2023-05-17T09:50:52;15.50;99.90
23991;DHT22;12205;50.600;4.608;2023-05-17T09:53:23;15.60;99.90
23991;DHT22;12205;50.600;4.608;2023-05-17T09:55:52;15.70;99.90
23991;DHT22;12205;50.600;4.608;2023-05-17T09:58:21;15.80;99.90
23991;DHT22;12205;50.600;4.608;2023-05-17T10:00:51;15.90;99.90
23991;DHT22;12205;50.600;4.608;2023-05-17T10:03:18;16.00;99.90
23991;DHT22;12205;50.600;4.608;2023-05-17T10:05:45;16.00;99.90
23991;DHT22;12205;50.600;4.608;2023-05-17T10:08:14;16.00;99.90
23991;DHT22;12205;50.600;4.608;2023-05-17T10:10:43;16.00;99.90
23991;DHT22;12205;50.600;4.608;2023-05-17T10:13:11;16.00;99.90
23991;DHT22;12205;50.600;4.608;2023-05-17T10:15:41;16.00;99.90
23991;DHT22;12205;50.600;4.608;2023-05-17T10:18:09;16.10;99.90
23991;DHT22;12205;50.600;4.608;2023-05-17T10:20:36;16.20;99.90
23991;DHT22;12205;50.600;4.608;2023-05-17T10:23:05;16.20;99.90
23991;DHT22;12205;50.600;4.608;2023-05-17T10:25:32;16.30;99.90
23991;DHT22;12205;50.600;4.608;2023-05-17T10:28:00;16.40;99.90
23991;DHT22;12205;50.600;4.608;2023-05-17T10:30:27;16.50;99.90
23991;DHT22;12205;50.600;4.608;2023-05-17T10:32:57;16.50;99.90
23991;DHT22;12205;50.600;4.608;2023-05-17T10:35:26;16.60;99.90
23991;DHT22;12205;50.600;4.608;2023-05-17T10:37:53;16.60;99.90
23991;DHT22;12205;50.600;4.608;2023-05-17T10:40:20;16.70;99.90
23991;DHT22;12205;50.600;4.608;2023-05-17T10:42:51;16.80;99.90
23991;DHT22;12205;50.600;4.608;2023-05-17T10:45:20;16.90;99.90
23991;DHT22;12205;50.600;4.608;2023-05-17T10:47:50;16.90;99.90
23991;DHT22;12205;50.600;4.608;2023-05-17T10:50:22;17.10;99.90
23991;DHT22;12205;50.600;4.608;2023-05-17T10:52:50;17.20;99.90
23991;DHT22;12205;50.600;4.608;2023-05-17T10:55:18;17.40;99.90
23991;DHT22;12205;50.600;4.608;2023-05-17T10:58:07;17.50;99.90
23991;DHT22;12205;50.600;4.608;2023-05-17T11:00:38;17.60;99.90
23991;DHT22;12205;50.600;4.608;2023-05-17T11:03:13;17.80;99.90
23991;DHT22;12205;50.600;4.608;2023-05-17T11:05:44;17.80;99.90
23991;DHT22;12205;50.600;4.608;2023-05-17T11:08:31;17.90;99.90
23991;DHT22;12205;50.600;4.608;2023-05-17T11:11:08;17.80;99.90
23991;DHT22;12205;50.600;4.608;2023-05-17T11:13:49;17.80;99.90
23991;DHT22;12205;50.600;4.608;2023-05-17T11:16:21;17.80;99.90
23991;DHT22;12205;50.600;4.608;2023-05-17T11:18:50;17.70;99.90
23991;DHT22;12205;50.600;4.608;2023-05-17T11:21:20;17.80;99.90
23991;DHT22;12205;50.600;4.608;2023-05-17T11:23:48;17.60;99.90
23991;DHT22;12205;50.600;4.608;2023-05-17T11:26:21;17.60;99.90
23991;DHT22;12205;50.600;4.608;2023-05-17T11:28:59;17.70;99.90
23991;DHT22;12205;50.600;4.608;2023-05-17T11:31:30;17.90;99.90
23991;DHT22;12205;50.600;4.608;2023-05-17T11:33:57;18.00;99.90
23991;DHT22;12205;50.600;4.608;2023-05-17T11:36:27;18.00;99.90
23991;DHT22;12205;50.600;4.608;2023-05-17T11:39:10;18.00;99.90
23991;DHT22;12205;50.600;4.608;2023-05-17T11:41:38;18.10;99.90
23991;DHT22;12205;50.600;4.608;2023-05-17T11:44:07;18.10;99.90
23991;DHT22;12205;50.600;4.608;2023-05-17T11:46:34;17.90;99.90
23991;DHT22;12205;50.600;4.608;2023-05-17T11:49:05;17.90;99.90
23991;DHT22;12205;50.600;4.608;2023-05-17T11:51:34;18.10;99.90
23991;DHT22;12205;50.600;4.608;2023-05-17T11:54:02;18.40;99.90
23991;DHT22;12205;50.600;4.608;2023-05-17T11:56:33;18.50;99.90
23991;DHT22;12205;50.600;4.608;2023-05-17T11:59:02;18.50;99.90
23991;DHT22;12205;50.600;4.608;2023-05-17T12:01:41;18.70;99.90
23991;DHT22;12205;50.600;4.608;2023-05-17T12:04:08;18.80;99.90
23991;DHT22;12205;50.600;4.608;2023-05-17T12:06:37;19.00;99.90
23991;DHT22;12205;50.600;4.608;2023-05-17T12:09:04;19.10;99.90
23991;DHT22;12205;50.600;4.608;2023-05-17T12:11:35;19.10;99.90
23991;DHT22;12205;50.600;4.608;2023-05-17T12:14:04;19.20;99.90
23991;DHT22;12205;50.600;4.608;2023-05-17T12:16:33;19.50;99.90
23991;DHT22;12205;50.600;4.608;2023-05-17T12:19:02;19.80;99.90
23991;DHT22;12205;50.600;4.608;2023-05-17T12:21:29;19.90;99.90
23991;DHT22;12205;50.600;4.608;2023-05-17T12:23:57;19.90;99.90
23991;DHT22;12205;50.600;4.608;2023-05-17T12:26:24;20.20;99.90
23991;DHT22;12205;50.600;4.608;2023-05-17T12:28:55;20.40;99.90
23991;DHT22;12205;50.600;4.608;2023-05-17T12:31:24;20.70;99.90
23991;DHT22;12205;50.600;4.608;2023-05-17T12:33:52;21.10;99.90
23991;DHT22;12205;50.600;4.608;2023-05-17T12:36:20;21.30;99.90
23991;DHT22;12205;50.600;4.608;2023-05-17T12:38:48;21.30;99.90
23991;DHT22;12205;50.600;4.608;2023-05-17T12:41:16;21.20;99.90
23991;DHT22;12205;50.600;4.608;2023-05-17T12:43:44;21.30;99.90
23991;DHT22;12205;50.600;4.608;2023-05-17T12:46:13;21.60;99.90
23991;DHT22;12205;50.600;4.608;2023-05-17T12:48:41;22.00;99.90
23991;DHT22;12205;50.600;4.608;2023-05-17T12:51:10;22.40;99.90
23991;DHT22;12205;50.600;4.608;2023-05-17T12:53:38;22.60;99.80
23991;DHT22;12205;50.600;4.608;2023-05-17T12:56:06;22.90;99.90
23991;DHT22;12205;50.600;4.608;2023-05-17T12:58:34;23.20;97.10
23991;DHT22;12205;50.600;4.608;2023-05-17T13:01:02;23.30;95.10
23991;DHT22;12205;50.600;4.608;2023-05-17T13:03:32;23.50;95.40
23991;DHT22;12205;50.600;4.608;2023-05-17T13:06:01;23.80;95.40
23991;DHT22;12205;50.600;4.608;2023-05-17T13:08:28;24.00;92.60
23991;DHT22;12205;50.600;4.608;2023-05-17T13:11:08;24.00;92.70
23991;DHT22;12205;50.600;4.608;2023-05-17T13:13:36;24.30;91.90
23991;DHT22;12205;50.600;4.608;2023-05-17T13:16:04;24.70;91.60
23991;DHT22;12205;50.600;4.608;2023-05-17T13:18:48;25.00;91.30
23991;DHT22;12205;50.600;4.608;2023-05-17T13:21:17;25.50;87.90
23991;DHT22;12205;50.600;4.608;2023-05-17T13:23:45;25.70;81.60
23991;DHT22;12205;50.600;4.608;2023-05-17T13:26:12;25.60;79.60
23991;DHT22;12205;50.600;4.608;2023-05-17T13:28:40;25.60;75.60
23991;DHT22;12205;50.600;4.608;2023-05-17T13:31:07;25.60;75.60
23991;DHT22;12205;50.600;4.608;2023-05-17T13:33:34;25.70;71.60
23991;DHT22;12205;50.600;4.608;2023-05-17T13:36:04;25.60;70.70
23991;DHT22;12205;50.600;4.608;2023-05-17T13:38:32;25.50;69.20
23991;DHT22;12205;50.600;4.608;2023-05-17T13:40:58;25.60;70.00
23991;DHT22;12205;50.600;4.608;2023-05-17T13:43:25;25.80;70.50
23991;DHT22;12205;50.600;4.608;2023-05-17T13:45:54;26.00;67.40
23991;DHT22;12205;50.600;4.608;2023-05-17T13:48:23;26.10;68.30
23991;DHT22;12205;50.600;4.608;2023-05-17T13:50:50;26.10;62.80
23991;DHT22;12205;50.600;4.608;2023-05-17T13:53:17;26.10;66.30
23991;DHT22;12205;50.600;4.608;2023-05-17T13:55:44;26.20;64.30
23991;DHT22;12205;50.600;4.608;2023-05-17T13:58:12;26.20;63.00
23991;DHT22;12205;50.600;4.608;2023-05-17T14:00:39;26.30;63.50
23991;DHT22;12205;50.600;4.608;2023-05-17T14:03:10;26.70;62.70
23991;DHT22;12205;50.600;4.608;2023-05-17T14:05:37;27.10;61.20
23991;DHT22;12205;50.600;4.608;2023-05-17T14:08:05;27.30;60.50
23991;DHT22;12205;50.600;4.608;2023-05-17T14:10:32;27.60;60.90
23991;DHT22;12205;50.600;4.608;2023-05-17T14:12:59;28.00;56.50
23991;DHT22;12205;50.600;4.608;2023-05-17T14:15:26;28.20;58.00
23991;DHT22;12205;50.600;4.608;2023-05-17T14:17:53;28.40;57.70
23991;DHT22;12205;50.600;4.608;2023-05-17T14:20:21;28.70;57.00
23991;DHT22;12205;50.600;4.608;2023-05-17T14:22:49;28.80;56.90
23991;DHT22;12205;50.600;4.608;2023-05-17T14:25:16;29.00;56.00
23991;DHT22;12205;50.600;4.608;2023-05-17T14:27:43;28.90;54.00
23991;DHT22;12205;50.600;4.608;2023-05-17T14:30:11;28.80;53.10
23991;DHT22;12205;50.600;4.608;2023-05-17T14:32:38;28.80;53.80
23991;DHT22;12205;50.600;4.608;2023-05-17T14:35:06;28.80;52.50
23991;DHT22;12205;50.600;4.608;2023-05-17T14:37:34;28.80;53.10
23991;DHT22;12205;50.600;4.608;2023-05-17T14:40:01;28.80;52.90
23991;DHT22;12205;50.600;4.608;2023-05-17T14:42:28;28.80;52.10
23991;DHT22;12205;50.600;4.608;2023-05-17T14:44:56;29.00;53.60
23991;DHT22;12205;50.600;4.608;2023-05-17T14:47:23;29.10;53.10
23991;DHT22;12205;50.600;4.608;2023-05-17T14:49:50;29.10;51.50
23991;DHT22;12205;50.600;4.608;2023-05-17T14:52:17;29.10;52.10
23991;DHT22;12205;50.600;4.608;2023-05-17T14:54:45;29.30;51.70
23991;DHT22;12205;50.600;4.608;2023-05-17T14:57:12;29.30;51.10
23991;DHT22;12205;50.600;4.608;2023-05-17T14:59:39;29.30;51.50
23991;DHT22;12205;50.600;4.608;2023-05-17T15:02:06;29.30;51.60
23991;DHT22;12205;50.600;4.608;2023-05-17T15:04:33;29.30;51.70
23991;DHT22;12205;50.600;4.608;2023-05-17T15:07:00;29.10;52.30
23991;DHT22;12205;50.600;4.608;2023-05-17T15:09:27;29.10;49.10
23991;DHT22;12205;50.600;4.608;2023-05-17T15:11:57;29.00;49.40
23991;DHT22;12205;50.600;4.608;2023-05-17T15:14:23;29.00;48.60
23991;DHT22;12205;50.600;4.608;2023-05-17T15:16:51;28.80;47.10
23991;DHT22;12205;50.600;4.608;2023-05-17T15:19:18;28.50;48.00
23991;DHT22;12205;50.600;4.608;2023-05-17T15:21:45;28.00;47.80
23991;DHT22;12205;50.600;4.608;2023-05-17T15:24:13;27.90;48.90
23991;DHT22;12205;50.600;4.608;2023-05-17T15:26:40;27.90;49.40
23991;DHT22;12205;50.600;4.608;2023-05-17T15:29:08;27.80;49.60
23991;DHT22;12205;50.600;4.608;2023-05-17T15:31:35;27.80;47.60
23991;DHT22;12205;50.600;4.608;2023-05-17T15:34:02;27.80;48.30
23991;DHT22;12205;50.600;4.608;2023-05-17T15:36:29;28.00;49.40
23991;DHT22;12205;50.600;4.608;2023-05-17T15:38:57;28.10;48.60
23991;DHT22;12205;50.600;4.608;2023-05-17T15:41:23;28.00;48.50
23991;DHT22;12205;50.600;4.608;2023-05-17T15:43:52;27.90;47.80